Time;durP1;ratioP1;P1;durP2;ratioP2;P2;SDS_P1;SDS_P2;PMS_P1;PMS_P2;Temp;Humidity;BMP_temperature;BMP_pressure;BME280_temperature;BME280_humidity;BME280_pressure;Samples;Min_cycle;Max_cycle;Signal;HPM_P1;HPM_P2
2021/12/19 00:10:18;;;;;;;22.90;15.52;;;;;;;;;;4810356;29;20114;-74
2021/12/19 00:12:45;;;;;;;16.58;10.30;;;;;;;;;;4812684;29;20658;-73
2021/12/19 00:15:12;;;;;;;19.58;13.85;;;;;;;;;;4810091;29;20146;-74
2021/12/19 00:17:40;;;;;;;19.73;13.82;;;;;;;;;;4813184;29;20802;-74
2021/12/19 00:20:08;;;;;;;20.17;12.95;;;;;;;;;;4823589;29;20042;-74
2021/12/19 00:22:55;;;;;;;21.40;13.15;;;;;;;;;;4821734;29;20034;-74
2021/12/19 00:25:22;;;;;;;24.70;16.88;;;;;;;;;;4811268;29;20054;-74
2021/12/19 00:27:50;;;;;;;23.85;17.08;;;;;;;;;;4795828;29;20503;-74
2021/12/19 00:30:17;;;;;;;22.10;16.83;;;;;;;;;;4811572;29;20512;-74
2021/12/19 00:32:45;;;;;;;23.80;16.63;;;;;;;;;;4811603;29;20400;-74
2021/12/19 00:35:12;;;;;;;24.23;15.90;;;;;;;;;;4815334;29;20074;-73
2021/12/19 00:37:40;;;;;;;26.02;17.05;;;;;;;;;;4812570;29;20044;-74
2021/12/19 00:40:07;;;;;;;26.50;17.10;;;;;;;;;;4811013;29;20473;-74
2021/12/19 00:42:36;;;;;;;25.35;18.05;;;;;;;;;;4812458;29;20050;-74
2021/12/19 00:45:26;;;;;;;26.45;17.77;;;;;;;;;;4814455;29;20828;-74
2021/12/19 00:47:53;;;;;;;21.55;16.35;;;;;;;;;;4811399;29;20086;-74
2021/12/19 00:50:21;;;;;;;25.48;17.13;;;;;;;;;;4810709;29;20061;-73
2021/12/19 00:52:48;;;;;;;21.70;15.52;;;;;;;;;;4813078;29;20142;-73
2021/12/19 00:55:21;;;;;;;21.42;15.70;;;;;;;;;;4813460;29;20096;-73
2021/12/19 00:57:49;;;;;;;26.42;17.08;;;;;;;;;;4813145;29;20139;-73
2021/12/19 01:00:18;;;;;;;26.92;18.30;;;;;;;;;;4810367;29;20054;-73
2021/12/19 01:02:46;;;;;;;25.50;17.00;;;;;;;;;;4815140;29;20042;-74
2021/12/19 01:05:14;;;;;;;25.20;18.25;;;;;;;;;;4815355;29;20042;-73
2021/12/19 01:07:42;;;;;;;32.28;19.42;;;;;;;;;;4809690;29;20138;-74
2021/12/19 01:10:20;;;;;;;24.77;18.13;;;;;;;;;;4809884;29;20073;-74
2021/12/19 01:13:04;;;;;;;29.85;19.67;;;;;;;;;;4799486;29;20058;-73
2021/12/19 01:15:37;;;;;;;30.23;19.92;;;;;;;;;;4793142;29;20061;-73
2021/12/19 01:18:11;;;;;;;28.48;18.67;;;;;;;;;;4809430;29;20054;-73
2021/12/19 01:20:45;;;;;;;30.30;20.10;;;;;;;;;;4806868;29;20108;-73
2021/12/19 01:23:25;;;;;;;33.00;20.35;;;;;;;;;;4779275;29;20108;-74
2021/12/19 01:25:53;;;;;;;28.92;18.80;;;;;;;;;;4807290;29;20078;-73
2021/12/19 01:28:20;;;;;;;26.80;17.35;;;;;;;;;;4809035;29;20111;-73
2021/12/19 01:30:48;;;;;;;20.35;13.25;;;;;;;;;;4803442;29;20050;-75
2021/12/19 01:33:16;;;;;;;31.10;19.83;;;;;;;;;;4808948;29;20052;-74
2021/12/19 01:35:43;;;;;;;27.33;17.67;;;;;;;;;;4810114;29;20047;-74
2021/12/19 01:38:11;;;;;;;29.13;18.30;;;;;;;;;;4815339;29;20078;-74
2021/12/19 01:40:38;;;;;;;27.15;17.08;;;;;;;;;;4807375;29;20119;-74
2021/12/19 01:43:08;;;;;;;27.90;18.40;;;;;;;;;;4791574;29;20050;-75
2021/12/19 01:45:38;;;;;;;21.40;13.98;;;;;;;;;;4807742;29;20133;-75
2021/12/19 01:48:10;;;;;;;25.65;16.42;;;;;;;;;;4806163;29;20050;-74
2021/12/19 01:50:38;;;;;;;28.25;19.40;;;;;;;;;;4803939;29;20648;-75
2021/12/19 01:53:06;;;;;;;28.30;17.80;;;;;;;;;;4791447;29;20162;-74
2021/12/19 01:55:34;;;;;;;27.30;16.65;;;;;;;;;;4806145;29;20050;-75
2021/12/19 01:58:01;;;;;;;25.27;16.95;;;;;;;;;;4805318;29;20092;-74
2021/12/19 02:00:30;;;;;;;28.20;18.48;;;;;;;;;;4804860;29;20584;-74
2021/12/19 02:02:58;;;;;;;23.85;15.50;;;;;;;;;;4809917;29;20146;-75
2021/12/19 02:05:27;;;;;;;28.23;18.92;;;;;;;;;;4809439;29;20054;-75
2021/12/19 02:07:55;;;;;;;26.67;18.05;;;;;;;;;;4807390;29;20145;-75
2021/12/19 02:10:25;;;;;;;26.90;17.33;;;;;;;;;;4804670;29;20161;-74
2021/12/19 02:12:54;;;;;;;25.88;17.45;;;;;;;;;;4805845;29;20051;-75
2021/12/19 02:15:23;;;;;;;31.33;19.13;;;;;;;;;;4804506;29;20283;-74
2021/12/19 02:17:52;;;;;;;21.73;14.63;;;;;;;;;;4808540;29;20785;-74
2021/12/19 02:20:20;;;;;;;29.05;19.20;;;;;;;;;;4807623;29;20134;-75
2021/12/19 02:22:48;;;;;;;28.33;18.83;;;;;;;;;;4808499;29;20134;-75
2021/12/19 02:25:16;;;;;;;22.45;14.15;;;;;;;;;;4798062;29;20955;-74
2021/12/19 02:27:44;;;;;;;26.48;16.13;;;;;;;;;;4806840;29;20560;-75
2021/12/19 02:30:13;;;;;;;30.35;19.90;;;;;;;;;;4805409;29;20066;-75
2021/12/19 02:32:41;;;;;;;31.85;20.23;;;;;;;;;;4804521;29;20051;-75
2021/12/19 02:35:14;;;;;;;32.47;20.55;;;;;;;;;;4805889;29;20479;-74
2021/12/19 02:48:29;;;;;;;37.63;22.48;;;;;;;;;;4807612;29;20062;-74
2021/12/19 02:50:56;;;;;;;36.42;21.90;;;;;;;;;;4803453;29;20054;-74
2021/12/19 02:53:32;;;;;;;36.35;21.80;;;;;;;;;;4805429;29;20074;-75
2021/12/19 02:56:01;;;;;;;33.35;21.42;;;;;;;;;;4808566;29;20046;-75
2021/12/19 02:58:29;;;;;;;32.67;20.00;;;;;;;;;;4806568;29;20106;-75
2021/12/19 03:00:57;;;;;;;27.85;16.98;;;;;;;;;;4801576;29;20146;-75
2021/12/19 03:03:25;;;;;;;32.47;19.35;;;;;;;;;;4800178;29;20042;-75
2021/12/19 03:05:58;;;;;;;40.03;23.48;;;;;;;;;;4805509;29;20504;-75
2021/12/19 03:08:52;;;;;;;30.92;20.13;;;;;;;;;;4789262;29;20318;-75
2021/12/19 03:19:47;;;;;;;33.58;19.90;;;;;;;;;;4805007;29;20069;-75
2021/12/19 03:22:15;;;;;;;41.40;24.63;;;;;;;;;;4807400;29;20161;-75
2021/12/19 03:24:42;;;;;;;37.88;22.70;;;;;;;;;;4805898;29;20042;-75
2021/12/19 03:27:10;;;;;;;39.53;22.88;;;;;;;;;;4807774;29;20439;-75
2021/12/19 03:29:37;;;;;;;41.00;22.55;;;;;;;;;;4808665;29;20054;-75
2021/12/19 03:32:04;;;;;;;36.78;20.60;;;;;;;;;;4806785;29;21360;-75
2021/12/19 03:34:34;;;;;;;42.65;23.33;;;;;;;;;;4807463;29;20399;-75
2021/12/19 03:37:02;;;;;;;40.85;22.48;;;;;;;;;;4806990;29;20050;-75
2021/12/19 03:39:37;;;;;;;40.92;22.02;;;;;;;;;;4791639;29;20073;-75
2021/12/19 03:42:05;;;;;;;30.20;19.25;;;;;;;;;;4779700;24;20499;-72
2021/12/19 03:44:32;;;;;;;37.58;22.10;;;;;;;;;;4792750;29;20143;-72
2021/12/19 03:47:00;;;;;;;25.70;14.52;;;;;;;;;;4787593;29;20143;-72
2021/12/19 03:49:27;;;;;;;36.17;20.92;;;;;;;;;;4787377;29;20075;-73
2021/12/19 03:51:55;;;;;;;28.42;17.08;;;;;;;;;;4773813;29;20134;-71
2021/12/19 03:54:22;;;;;;;38.25;20.20;;;;;;;;;;4775779;29;20517;-72
2021/12/19 03:56:49;;;;;;;32.22;19.02;;;;;;;;;;4779094;29;20130;-71
2021/12/19 03:59:17;;;;;;;32.80;19.33;;;;;;;;;;4776720;29;20046;-72
2021/12/19 04:01:49;;;;;;;36.45;19.98;;;;;;;;;;4780047;29;20166;-72
2021/12/19 04:04:17;;;;;;;38.75;22.10;;;;;;;;;;4784165;29;20046;-72
2021/12/19 04:06:44;;;;;;;39.35;19.95;;;;;;;;;;4782573;29;20058;-72
2021/12/19 04:09:12;;;;;;;30.08;19.30;;;;;;;;;;4769347;29;21014;-72
2021/12/19 04:11:39;;;;;;;36.25;19.95;;;;;;;;;;4766579;29;20067;-71
2021/12/19 04:14:07;;;;;;;26.27;16.02;;;;;;;;;;4783057;29;20062;-71
2021/12/19 04:16:34;;;;;;;32.72;18.63;;;;;;;;;;4780991;29;20124;-72
2021/12/19 04:19:02;;;;;;;32.17;18.98;;;;;;;;;;4778510;29;20129;-71
2021/12/19 04:21:29;;;;;;;35.20;19.35;;;;;;;;;;4784534;29;20388;-71
2021/12/19 04:23:56;;;;;;;31.25;17.80;;;;;;;;;;4800476;29;20106;-71
2021/12/19 04:26:24;;;;;;;32.45;18.00;;;;;;;;;;4796540;29;20081;-71
2021/12/19 04:28:52;;;;;;;33.67;17.90;;;;;;;;;;4802594;29;20054;-72
2021/12/19 04:31:19;;;;;;;37.03;18.52;;;;;;;;;;4782465;29;20169;-71
2021/12/19 04:33:47;;;;;;;31.90;18.13;;;;;;;;;;4799947;29;21776;-71
2021/12/19 04:36:22;;;;;;;35.40;18.50;;;;;;;;;;4782776;29;20138;-71
2021/12/19 04:44:41;;;;;;;25.45;15.50;;;;;;;;;;4794631;29;20078;-71
2021/12/19 05:16:44;;;;;;;25.08;14.57;;;;;;;;;;4775584;29;20130;-72
2021/12/19 05:19:29;;;;;;;23.17;13.98;;;;;;;;;;4772682;29;20454;-72
2021/12/19 05:22:00;;;;;;;21.02;12.93;;;;;;;;;;4761907;29;20116;-72
2021/12/19 05:27:05;;;;;;;22.50;13.45;;;;;;;;;;4780945;29;20492;-72
2021/12/19 05:29:33;;;;;;;25.52;14.73;;;;;;;;;;4779453;29;20141;-72
2021/12/19 05:32:00;;;;;;;23.88;14.73;;;;;;;;;;4781340;29;20048;-72
2021/12/19 05:34:29;;;;;;;24.35;15.10;;;;;;;;;;4783908;29;20086;-72
2021/12/19 05:45:18;;;;;;;21.60;13.18;;;;;;;;;;4785604;29;20078;-72
2021/12/19 05:47:47;;;;;;;26.80;14.10;;;;;;;;;;4789528;29;20071;-72
2021/12/19 05:50:22;;;;;;;29.75;15.88;;;;;;;;;;4779440;29;20055;-72
2021/12/19 05:52:50;;;;;;;27.80;14.13;;;;;;;;;;4781243;29;20474;-72
2021/12/19 05:55:20;;;;;;;28.55;14.68;;;;;;;;;;4785685;29;20062;-72
2021/12/19 05:57:47;;;;;;;25.45;13.85;;;;;;;;;;4782557;29;20623;-72
2021/12/19 06:00:16;;;;;;;23.42;13.82;;;;;;;;;;4794810;29;20059;-72
2021/12/19 06:02:44;;;;;;;21.17;12.48;;;;;;;;;;4779922;29;20052;-72
2021/12/19 06:05:12;;;;;;;25.85;12.98;;;;;;;;;;4779389;29;20079;-72
2021/12/19 06:07:40;;;;;;;23.08;13.15;;;;;;;;;;4780126;29;20043;-72
2021/12/19 06:10:08;;;;;;;19.98;11.38;;;;;;;;;;4779974;29;20166;-72
2021/12/19 06:12:37;;;;;;;13.48;8.63;;;;;;;;;;4782880;29;20140;-72
2021/12/19 06:15:09;;;;;;;19.55;12.52;;;;;;;;;;4784427;29;20500;-72
2021/12/19 06:17:37;;;;;;;21.23;11.20;;;;;;;;;;4778056;29;20040;-72
2021/12/19 06:20:05;;;;;;;20.38;11.57;;;;;;;;;;4788404;29;20382;-72
2021/12/19 06:22:32;;;;;;;19.83;11.65;;;;;;;;;;4781820;29;20280;-72
2021/12/19 06:25:00;;;;;;;22.55;11.00;;;;;;;;;;4782229;29;20100;-72
2021/12/19 06:27:27;;;;;;;18.70;11.30;;;;;;;;;;4787782;29;20138;-72
2021/12/19 06:29:55;;;;;;;13.40;9.73;;;;;;;;;;4785102;29;20083;-72
2021/12/19 06:32:22;;;;;;;14.40;9.38;;;;;;;;;;4781604;29;20084;-72
2021/12/19 06:34:49;;;;;;;18.05;10.30;;;;;;;;;;4784484;29;20089;-71
2021/12/19 06:37:17;;;;;;;14.77;10.13;;;;;;;;;;4785303;29;20112;-72
2021/12/19 06:39:44;;;;;;;14.57;9.27;;;;;;;;;;4786794;29;20483;-72
2021/12/19 06:42:12;;;;;;;15.30;9.82;;;;;;;;;;4775478;29;20075;-72
2021/12/19 06:44:39;;;;;;;16.90;10.00;;;;;;;;;;4800256;29;20043;-72
2021/12/19 06:47:07;;;;;;;15.55;9.63;;;;;;;;;;4781945;29;20083;-72
2021/12/19 06:49:34;;;;;;;19.58;10.95;;;;;;;;;;4783021;29;20047;-72
2021/12/19 06:52:02;;;;;;;14.55;9.30;;;;;;;;;;4780592;29;20400;-72
2021/12/19 06:54:29;;;;;;;12.52;8.13;;;;;;;;;;4788108;29;20133;-72
2021/12/19 06:56:57;;;;;;;12.27;7.80;;;;;;;;;;4781338;29;20039;-72
2021/12/19 06:59:24;;;;;;;17.63;9.88;;;;;;;;;;4799573;29;20051;-72
2021/12/19 07:01:52;;;;;;;9.15;6.20;;;;;;;;;;4788283;29;20043;-72
2021/12/19 07:04:19;;;;;;;10.15;6.65;;;;;;;;;;4784322;29;20094;-72
2021/12/19 07:06:46;;;;;;;9.38;6.57;;;;;;;;;;4781375;29;20047;-72
2021/12/19 07:09:14;;;;;;;7.78;6.32;;;;;;;;;;4777055;29;20097;-72
2021/12/19 07:11:43;;;;;;;7.03;5.72;;;;;;;;;;4780545;29;20400;-72
2021/12/19 07:14:10;;;;;;;8.45;5.38;;;;;;;;;;4778809;29;20135;-72
2021/12/19 07:16:37;;;;;;;8.32;6.18;;;;;;;;;;4790229;29;20130;-72
2021/12/19 07:19:05;;;;;;;8.48;6.32;;;;;;;;;;4791164;29;20476;-72
2021/12/19 07:21:32;;;;;;;8.82;6.53;;;;;;;;;;4782487;29;20071;-72
2021/12/19 07:24:00;;;;;;;10.63;7.10;;;;;;;;;;4782450;29;20043;-72
2021/12/19 07:26:28;;;;;;;10.45;6.65;;;;;;;;;;4779579;29;20054;-72
2021/12/19 07:28:56;;;;;;;9.13;5.95;;;;;;;;;;4779495;29;20082;-72
2021/12/19 07:31:24;;;;;;;7.13;5.57;;;;;;;;;;4790442;29;20047;-72
2021/12/19 07:33:51;;;;;;;9.43;6.50;;;;;;;;;;4780701;29;20104;-72
2021/12/19 07:36:23;;;;;;;10.85;7.53;;;;;;;;;;4777611;29;20084;-72
2021/12/19 07:39:00;;;;;;;8.68;6.88;;;;;;;;;;4782048;29;20496;-72
2021/12/19 07:41:28;;;;;;;12.75;6.65;;;;;;;;;;4777795;29;20058;-72
2021/12/19 07:43:55;;;;;;;8.52;6.65;;;;;;;;;;4779290;29;20128;-72
2021/12/19 07:46:23;;;;;;;9.52;6.35;;;;;;;;;;4775551;29;20156;-72
2021/12/19 07:48:51;;;;;;;9.88;6.60;;;;;;;;;;4782975;29;20035;-72
2021/12/19 07:51:18;;;;;;;7.30;5.85;;;;;;;;;;4784861;29;20047;-72
2021/12/19 07:53:45;;;;;;;7.97;5.53;;;;;;;;;;4779452;29;20139;-72
2021/12/19 07:56:13;;;;;;;8.23;5.50;;;;;;;;;;4776248;29;20047;-72
2021/12/19 07:58:40;;;;;;;7.38;5.60;;;;;;;;;;4778116;29;20141;-72
2021/12/19 08:01:08;;;;;;;9.93;6.90;;;;;;;;;;4780824;29;20043;-72
2021/12/19 08:03:35;;;;;;;8.27;5.68;;;;;;;;;;4777909;29;20071;-72
2021/12/19 08:06:02;;;;;;;8.55;6.07;;;;;;;;;;4777424;29;20066;-72
2021/12/19 08:08:32;;;;;;;7.97;5.95;;;;;;;;;;4782095;29;20075;-72
2021/12/19 08:13:46;;;;;;;8.07;5.68;;;;;;;;;;4779418;29;20070;-72
2021/12/19 08:16:14;;;;;;;8.27;5.97;;;;;;;;;;4778080;29;20092;-72
2021/12/19 08:18:41;;;;;;;8.93;6.00;;;;;;;;;;4777611;29;20075;-72
2021/12/19 08:21:09;;;;;;;11.13;7.03;;;;;;;;;;4777290;29;20040;-72
2021/12/19 08:23:36;;;;;;;10.63;6.40;;;;;;;;;;4778913;29;20136;-72
2021/12/19 08:26:04;;;;;;;8.55;6.15;;;;;;;;;;4781173;29;20118;-72
2021/12/19 08:28:31;;;;;;;8.85;6.57;;;;;;;;;;4784151;29;20090;-72
2021/12/19 08:30:59;;;;;;;9.13;5.97;;;;;;;;;;4781298;29;20413;-72
2021/12/19 08:33:26;;;;;;;8.18;5.80;;;;;;;;;;4779684;29;20366;-72
2021/12/19 08:35:54;;;;;;;8.65;6.32;;;;;;;;;;4778239;29;20142;-72
2021/12/19 08:38:21;;;;;;;9.77;6.60;;;;;;;;;;4778881;29;20079;-72
2021/12/19 08:40:51;;;;;;;6.45;5.30;;;;;;;;;;4782108;29;20062;-72
2021/12/19 08:43:19;;;;;;;7.88;5.85;;;;;;;;;;4783112;29;20082;-72
2021/12/19 08:45:47;;;;;;;6.78;5.50;;;;;;;;;;4782951;29;20040;-72
2021/12/19 08:48:14;;;;;;;5.15;4.45;;;;;;;;;;4782838;29;20075;-72
2021/12/19 08:50:42;;;;;;;6.88;5.60;;;;;;;;;;4780381;29;20500;-72
2021/12/19 08:53:09;;;;;;;8.63;5.57;;;;;;;;;;4776996;29;20058;-72
2021/12/19 08:55:36;;;;;;;5.68;4.95;;;;;;;;;;4779290;29;20137;-72
2021/12/19 08:58:04;;;;;;;8.50;6.15;;;;;;;;;;4788292;29;20043;-72
2021/12/19 09:00:33;;;;;;;7.63;5.57;;;;;;;;;;4778052;29;20582;-72
2021/12/19 09:03:01;;;;;;;8.27;6.43;;;;;;;;;;4778136;29;20075;-72
2021/12/19 09:05:29;;;;;;;7.43;5.78;;;;;;;;;;4793751;29;20116;-72
2021/12/19 09:07:57;;;;;;;11.02;5.93;;;;;;;;;;4782444;29;20145;-72
2021/12/19 09:10:25;;;;;;;6.45;5.53;;;;;;;;;;4779038;29;20598;-72
2021/12/19 09:12:52;;;;;;;7.07;5.68;;;;;;;;;;4785391;29;20067;-72
2021/12/19 09:15:21;;;;;;;7.72;5.57;;;;;;;;;;4779596;29;20160;-72
2021/12/19 09:17:48;;;;;;;6.50;5.53;;;;;;;;;;4782801;29;20071;-72
2021/12/19 09:20:16;;;;;;;6.13;4.80;;;;;;;;;;4787334;29;20042;-72
2021/12/19 09:22:43;;;;;;;6.25;5.20;;;;;;;;;;4781097;29;20222;-72
2021/12/19 09:25:19;;;;;;;7.75;5.55;;;;;;;;;;4787410;29;20096;-72
2021/12/19 09:27:47;;;;;;;10.00;7.97;;;;;;;;;;4792503;29;20358;-72
2021/12/19 09:30:14;;;;;;;6.30;4.93;;;;;;;;;;4787794;29;20074;-71
2021/12/19 09:32:42;;;;;;;6.30;5.68;;;;;;;;;;4795565;29;20071;-71
2021/12/19 09:35:10;;;;;;;8.20;5.72;;;;;;;;;;4784323;29;20039;-71
2021/12/19 09:37:37;;;;;;;6.65;5.18;;;;;;;;;;4780996;29;20082;-71
2021/12/19 09:40:17;;;;;;;5.30;4.80;;;;;;;;;;4775451;29;20078;-72
2021/12/19 09:42:48;;;;;;;5.72;4.63;;;;;;;;;;4782616;29;20126;-72
2021/12/19 09:45:16;;;;;;;5.85;4.88;;;;;;;;;;4807702;24;20495;-74
2021/12/19 09:47:44;;;;;;;10.18;5.70;;;;;;;;;;4821820;29;20077;-73
2021/12/19 09:50:12;;;;;;;6.57;5.57;;;;;;;;;;4821948;29;20077;-74
2021/12/19 09:52:39;;;;;;;5.97;5.22;;;;;;;;;;4813211;29;20492;-74
2021/12/19 09:55:07;;;;;;;5.88;5.15;;;;;;;;;;4813882;29;20144;-74
2021/12/19 09:57:34;;;;;;;7.97;5.38;;;;;;;;;;4806884;29;20523;-74
2021/12/19 10:00:04;;;;;;;6.78;5.80;;;;;;;;;;4811716;29;20045;-74
2021/12/19 10:02:40;;;;;;;6.07;5.00;;;;;;;;;;4811567;29;20102;-74
2021/12/19 10:05:18;;;;;;;5.82;4.68;;;;;;;;;;4807821;29;20067;-74
2021/12/19 10:07:47;;;;;;;7.10;5.90;;;;;;;;;;4809896;29;20122;-75
2021/12/19 10:10:24;;;;;;;4.53;4.10;;;;;;;;;;4813823;29;20068;-74
2021/12/19 10:12:53;;;;;;;6.45;5.35;;;;;;;;;;4808088;29;20092;-74
2021/12/19 10:15:38;;;;;;;6.72;6.03;;;;;;;;;;4809229;29;20078;-74
2021/12/19 10:18:07;;;;;;;4.38;3.92;;;;;;;;;;4800481;29;20058;-74
2021/12/19 10:20:59;;;;;;;5.45;4.95;;;;;;;;;;4811192;29;20134;-74
2021/12/19 10:23:36;;;;;;;5.90;4.70;;;;;;;;;;4801882;29;20075;-74
2021/12/19 10:26:08;;;;;;;8.45;6.20;;;;;;;;;;4808527;29;20112;-75
2021/12/19 10:28:49;;;;;;;7.72;6.28;;;;;;;;;;4839181;29;20104;-74
2021/12/19 10:31:16;;;;;;;6.70;5.80;;;;;;;;;;4827195;29;20118;-75
2021/12/19 10:33:44;;;;;;;5.82;5.13;;;;;;;;;;4841115;29;20045;-75
2021/12/19 10:36:12;;;;;;;5.82;5.20;;;;;;;;;;4849251;29;20046;-74
2021/12/19 10:38:44;;;;;;;6.93;6.20;;;;;;;;;;4842508;29;20394;-75
2021/12/19 10:41:13;;;;;;;7.85;5.95;;;;;;;;;;4847633;29;20061;-75
2021/12/19 10:43:58;;;;;;;8.98;6.70;;;;;;;;;;4821177;29;20086;-75
2021/12/19 10:46:34;;;;;;;8.48;6.35;;;;;;;;;;4837360;29;20054;-74
2021/12/19 10:49:02;;;;;;;7.60;6.57;;;;;;;;;;4843668;29;20353;-75
2021/12/19 10:51:32;;;;;;;9.13;6.57;;;;;;;;;;4826994;29;20059;-73
2021/12/19 10:54:00;;;;;;;9.20;7.25;;;;;;;;;;4852156;29;20248;-74
2021/12/19 10:56:29;;;;;;;8.02;6.13;;;;;;;;;;4845877;29;20056;-74
2021/12/19 10:58:58;;;;;;;7.10;5.78;;;;;;;;;;4842468;29;20142;-74
2021/12/19 11:01:30;;;;;;;9.20;6.60;;;;;;;;;;4810050;29;20038;-73
2021/12/19 11:04:10;;;;;;;8.80;6.43;;;;;;;;;;4813172;29;20122;-73
2021/12/19 11:06:39;;;;;;;8.20;6.22;;;;;;;;;;4812017;29;20472;-74
2021/12/19 11:09:08;;;;;;;7.97;5.90;;;;;;;;;;4817102;29;20050;-74
2021/12/19 11:11:47;;;;;;;10.23;6.57;;;;;;;;;;4807977;29;20088;-74
2021/12/19 11:14:37;;;;;;;6.63;5.50;;;;;;;;;;4812611;29;20491;-74
2021/12/19 11:17:06;;;;;;;8.02;6.50;;;;;;;;;;4807601;29;20052;-74
2021/12/19 11:19:34;;;;;;;10.82;6.85;;;;;;;;;;4814198;29;20444;-74
2021/12/19 11:22:25;;;;;;;9.15;6.68;;;;;;;;;;4805281;29;20039;-74
2021/12/19 11:24:53;;;;;;;7.80;6.10;;;;;;;;;;4807056;29;20396;-74
2021/12/19 11:27:21;;;;;;;7.43;6.65;;;;;;;;;;4806419;29;20427;-74
2021/12/19 11:29:50;;;;;;;10.68;7.97;;;;;;;;;;4806338;29;20360;-74
2021/12/19 11:32:19;;;;;;;8.75;7.13;;;;;;;;;;4831605;29;20460;-74
2021/12/19 11:35:01;;;;;;;9.25;7.50;;;;;;;;;;4808803;29;20481;-74
2021/12/19 11:37:33;;;;;;;9.30;7.53;;;;;;;;;;4804851;29;20051;-74
2021/12/19 11:40:02;;;;;;;8.32;7.10;;;;;;;;;;4810171;29;20103;-74
2021/12/19 11:42:31;;;;;;;8.93;7.22;;;;;;;;;;4808300;29;20472;-75
2021/12/19 11:45:25;;;;;;;7.85;7.05;;;;;;;;;;4808957;29;20054;-75
2021/12/19 11:47:55;;;;;;;9.15;7.40;;;;;;;;;;4810181;29;20095;-75
2021/12/19 11:50:27;;;;;;;8.77;7.00;;;;;;;;;;4811966;29;20046;-75
2021/12/19 11:53:14;;;;;;;7.72;6.97;;;;;;;;;;4808614;29;20516;-75
2021/12/19 11:55:43;;;;;;;7.35;6.55;;;;;;;;;;4799731;29;20064;-75
2021/12/19 11:58:31;;;;;;;6.93;6.18;;;;;;;;;;4806789;29;20043;-74
2021/12/19 12:01:03;;;;;;;6.63;6.00;;;;;;;;;;4796784;29;20595;-75
2021/12/19 12:03:33;;;;;;;6.72;5.97;;;;;;;;;;4817766;29;20156;-75
2021/12/19 12:06:20;;;;;;;7.53;6.70;;;;;;;;;;4819727;29;20042;-74
2021/12/19 12:09:06;;;;;;;7.75;6.95;;;;;;;;;;4807128;29;20043;-74
2021/12/19 12:11:35;;;;;;;7.68;6.80;;;;;;;;;;4828560;29;20061;-74
2021/12/19 12:14:22;;;;;;;9.23;7.50;;;;;;;;;;4804804;29;20034;-74
2021/12/19 12:16:55;;;;;;;8.40;7.50;;;;;;;;;;4807082;29;20073;-74
2021/12/19 12:19:37;;;;;;;7.32;6.32;;;;;;;;;;4815027;29;20050;-74
2021/12/19 12:22:41;;;;;;;9.00;7.20;;;;;;;;;;4809347;29;20490;-74
2021/12/19 12:25:14;;;;;;;8.13;7.10;;;;;;;;;;4805795;29;20512;-75
2021/12/19 12:27:44;;;;;;;8.77;6.40;;;;;;;;;;4810712;29;20069;-75
2021/12/19 12:30:13;;;;;;;7.68;5.90;;;;;;;;;;4786709;29;20136;-75
2021/12/19 12:32:41;;;;;;;7.90;6.80;;;;;;;;;;4800268;29;20047;-75
2021/12/19 12:35:11;;;;;;;7.05;6.10;;;;;;;;;;4804873;29;20061;-74
2021/12/19 12:37:41;;;;;;;8.00;6.82;;;;;;;;;;4808478;29;20476;-74
2021/12/19 12:40:18;;;;;;;8.50;6.55;;;;;;;;;;4804950;29;20215;-74
2021/12/19 12:43:05;;;;;;;8.07;6.55;;;;;;;;;;4801274;29;20263;-74
2021/12/19 12:45:47;;;;;;;5.97;5.20;;;;;;;;;;4806998;29;20133;-74
2021/12/19 12:48:26;;;;;;;8.85;7.13;;;;;;;;;;4806378;29;20055;-74
2021/12/19 12:50:53;;;;;;;10.25;7.47;;;;;;;;;;4804340;29;20406;-74
2021/12/19 12:53:32;;;;;;;8.40;7.47;;;;;;;;;;4814434;29;20070;-74
2021/12/19 12:56:01;;;;;;;8.43;7.20;;;;;;;;;;4804875;29;20074;-74
2021/12/19 12:58:34;;;;;;;9.55;7.15;;;;;;;;;;4801678;29;20038;-74
2021/12/19 13:01:22;;;;;;;8.48;7.43;;;;;;;;;;4794404;29;20082;-74
2021/12/19 13:04:03;;;;;;;8.98;7.75;;;;;;;;;;4797339;29;20056;-75
2021/12/19 13:06:38;;;;;;;10.15;8.80;;;;;;;;;;4809540;29;20834;-75
2021/12/19 13:09:08;;;;;;;8.27;7.20;;;;;;;;;;4812312;29;20082;-74
2021/12/19 13:11:37;;;;;;;11.73;10.52;;;;;;;;;;4806408;29;20043;-74
2021/12/19 13:14:11;;;;;;;9.55;8.18;;;;;;;;;;4806642;29;20149;-74
2021/12/19 13:16:42;;;;;;;9.70;7.85;;;;;;;;;;4804804;29;20524;-74
2021/12/19 13:19:10;;;;;;;8.43;7.53;;;;;;;;;;4799363;29;20091;-74
2021/12/19 13:21:53;;;;;;;7.03;6.28;;;;;;;;;;4803650;29;20060;-74
2021/12/19 13:24:22;;;;;;;8.52;7.63;;;;;;;;;;4819638;29;20081;-74
2021/12/19 13:27:07;;;;;;;12.15;10.13;;;;;;;;;;4821646;29;20038;-74
2021/12/19 13:29:36;;;;;;;9.98;8.85;;;;;;;;;;4812968;29;20344;-75
2021/12/19 13:32:26;;;;;;;9.70;8.70;;;;;;;;;;4808222;29;20065;-74
2021/12/19 13:35:03;;;;;;;9.90;8.90;;;;;;;;;;4798292;29;20138;-74
2021/12/19 13:37:33;;;;;;;11.93;10.20;;;;;;;;;;4825811;29;20087;-74
2021/12/19 13:40:13;;;;;;;11.45;9.05;;;;;;;;;;4827575;29;20140;-74
2021/12/19 13:42:48;;;;;;;11.57;9.32;;;;;;;;;;4813595;29;20050;-74
2021/12/19 13:45:31;;;;;;;9.18;8.25;;;;;;;;;;4829592;29;20072;-74
2021/12/19 13:48:00;;;;;;;8.55;7.43;;;;;;;;;;4835639;29;20537;-74
2021/12/19 13:50:30;;;;;;;11.32;9.07;;;;;;;;;;4828269;29;20456;-74
2021/12/19 13:52:57;;;;;;;9.07;7.85;;;;;;;;;;4820233;29;20083;-77
2021/12/19 13:55:24;;;;;;;10.43;8.55;;;;;;;;;;4827409;29;20128;-74
2021/12/19 13:58:05;;;;;;;9.52;8.52;;;;;;;;;;4823337;29;20050;-74
2021/12/19 14:00:37;;;;;;;9.95;8.38;;;;;;;;;;4836600;29;20066;-75
2021/12/19 14:03:05;;;;;;;10.65;8.63;;;;;;;;;;4810322;29;20081;-74
2021/12/19 14:05:32;;;;;;;12.60;10.27;;;;;;;;;;4829017;29;20484;-75
2021/12/19 14:08:00;;;;;;;11.43;9.23;;;;;;;;;;4823986;29;20111;-75
2021/12/19 14:10:27;;;;;;;11.15;9.32;;;;;;;;;;4828190;29;20636;-74
2021/12/19 14:13:14;;;;;;;11.35;9.13;;;;;;;;;;4830216;29;20046;-74
2021/12/19 14:15:51;;;;;;;9.30;8.05;;;;;;;;;;4828908;29;20484;-75
2021/12/19 14:18:25;;;;;;;10.98;8.68;;;;;;;;;;4830300;29;20103;-75
2021/12/19 14:20:52;;;;;;;8.40;7.55;;;;;;;;;;4827953;29;20047;-75
2021/12/19 14:23:20;;;;;;;12.00;8.32;;;;;;;;;;4821503;29;20142;-74
2021/12/19 14:25:49;;;;;;;9.10;8.20;;;;;;;;;;4821331;29;20129;-75
2021/12/19 14:28:18;;;;;;;10.65;7.90;;;;;;;;;;4821862;29;20497;-75
2021/12/19 14:30:57;;;;;;;10.90;8.82;;;;;;;;;;4821359;29;20538;-75
2021/12/19 14:33:29;;;;;;;9.32;7.57;;;;;;;;;;4821960;29;20077;-74
2021/12/19 14:35:56;;;;;;;11.10;8.63;;;;;;;;;;4836297;29;20066;-74
2021/12/19 14:38:24;;;;;;;13.30;9.98;;;;;;;;;;4829753;29;20500;-74
2021/12/19 14:40:57;;;;;;;11.88;9.30;;;;;;;;;;4825906;29;20226;-74
2021/12/19 14:43:28;;;;;;;11.48;8.75;;;;;;;;;;4836885;29;20050;-74
2021/12/19 14:45:56;;;;;;;10.93;8.25;;;;;;;;;;4821366;29;20515;-74
2021/12/19 14:48:37;;;;;;;9.48;8.52;;;;;;;;;;4826859;29;20054;-74
2021/12/19 14:51:08;;;;;;;8.40;7.47;;;;;;;;;;4816434;29;20118;-74
2021/12/19 14:53:37;;;;;;;8.50;6.40;;;;;;;;;;4830900;29;20149;-74
2021/12/19 14:56:09;;;;;;;7.55;6.57;;;;;;;;;;4831938;29;20456;-74
2021/12/19 14:58:36;;;;;;;;;;;;;;;;;;4823876;29;20501;-74
2021/12/19 15:01:09;;;;;;;8.00;6.43;;;;;;;;;;4826694;29;20059;-74
2021/12/19 15:03:38;;;;;;;8.63;6.95;;;;;;;;;;4813661;29;20050;-74
2021/12/19 15:06:13;;;;;;;9.07;6.78;;;;;;;;;;4837652;29;20045;-74
2021/12/19 15:08:41;;;;;;;9.85;8.02;;;;;;;;;;4829381;29;20694;-74
2021/12/19 15:11:09;;;;;;;11.63;8.20;;;;;;;;;;4832669;29;20050;-74
2021/12/19 15:13:36;;;;;;;10.95;8.48;;;;;;;;;;4819390;29;20166;-74
2021/12/19 15:16:04;;;;;;;8.27;6.90;;;;;;;;;;4819686;29;20454;-74
2021/12/19 15:18:35;;;;;;;8.23;6.95;;;;;;;;;;4819284;29;20130;-74
2021/12/19 15:21:06;;;;;;;6.95;6.35;;;;;;;;;;4817543;29;20035;-75
2021/12/19 15:23:41;;;;;;;9.57;7.28;;;;;;;;;;4821585;29;20053;-75
2021/12/19 15:26:15;;;;;;;8.25;7.20;;;;;;;;;;4821452;29;20134;-75
2021/12/19 15:28:46;;;;;;;10.30;7.50;;;;;;;;;;4820473;29;20552;-75
2021/12/19 15:31:18;;;;;;;7.90;6.38;;;;;;;;;;4819564;29;20077;-75
2021/12/19 15:33:47;;;;;;;7.68;6.80;;;;;;;;;;4819082;29;20062;-75
2021/12/19 15:36:14;;;;;;;7.28;6.47;;;;;;;;;;4818687;29;20046;-75
2021/12/19 15:38:42;;;;;;;7.95;6.82;;;;;;;;;;4820837;29;20047;-75
2021/12/19 15:41:09;;;;;;;8.02;7.22;;;;;;;;;;4820473;29;20077;-74
2021/12/19 15:43:37;;;;;;;6.10;5.50;;;;;;;;;;4821716;29;20046;-75
2021/12/19 15:46:04;;;;;;;7.88;6.70;;;;;;;;;;4835079;24;20490;-72
2021/12/19 15:48:32;;;;;;;7.32;5.45;;;;;;;;;;4832280;29;20495;-72
2021/12/19 15:50:59;;;;;;;7.78;6.32;;;;;;;;;;4831541;29;20512;-71
2021/12/19 15:53:27;;;;;;;10.13;8.68;;;;;;;;;;4819904;29;20111;-72
2021/12/19 15:55:54;;;;;;;10.38;7.32;;;;;;;;;;4818817;29;20495;-72
2021/12/19 15:58:22;;;;;;;7.90;6.90;;;;;;;;;;4830620;29;20114;-72
2021/12/19 16:00:49;;;;;;;9.93;7.07;;;;;;;;;;4833309;29;20046;-71
2021/12/19 16:03:16;;;;;;;10.38;6.93;;;;;;;;;;4821181;29;20046;-72
2021/12/19 16:05:46;;;;;;;9.05;6.95;;;;;;;;;;4820770;29;20221;-72
2021/12/19 16:08:14;;;;;;;10.75;6.50;;;;;;;;;;4819472;29;20080;-72